CheckWX is a tool to help pilots better visualize weather data.  It is not intended as a substitute for an official pre-flight weather briefing.

03:16:28 UTC

ETGG METAR
Gluecksburg / Meierwik Airport
Gluecksburg, Germany
Current

56 mins ago

ETGG 270220Z 28022KT 9999 BKN018 12/10 Q1002 WHT
Observed
May-27 @ 02:20 UTC
Wind
  • 280° at 22 KTS
Visibility
10,000+ meters
Flight Rules
MVFR
Cloud Levels
  • Broken at 1,800' AGL
Temperature
12°C / 54°F
Dewpoint
10°C / 50°F
Humidity
88%
Altimeter
29.59" Hg
Pressure
1001.92 hPa
Previous

2 hours ago

ETGG 270120Z 27021KT 9999 BKN018 12/10 Q1002 WHT
Observed
May-27 @ 01:20 UTC
Wind
  • 270° at 21 KTS
Visibility
10,000+ meters
Flight Rules
MVFR
Cloud Levels
  • Broken at 1,800' AGL
Temperature
12°C / 54°F
Dewpoint
10°C / 50°F
Humidity
88%
Altimeter
29.59" Hg
Pressure
1001.92 hPa
Previous

3 hours ago

ETGG 270020Z 28026KT 6000 BKN008 13/11 Q1002 GRN
Observed
May-27 @ 00:20 UTC
Wind
  • 280° at 26 KTS
Visibility
6,003 meters
Flight Rules
IFR
Cloud Levels
  • Broken at 800' AGL
Temperature
13°C / 55°F
Dewpoint
11°C / 52°F
Humidity
88%
Altimeter
29.59" Hg
Pressure
1001.92 hPa